Time;durP1;ratioP1;P1;durP2;ratioP2;P2;SDS_P1;SDS_P2;PMS_P1;PMS_P2;Temp;Humidity;BMP_temperature;BMP_pressure;BME280_temperature;BME280_humidity;BME280_pressure;Samples;Min_cycle;Max_cycle;Signal;HPM_P1;HPM_P2
2024/02/07 00:01:23;;;;;;;9.68;3.15;;;;;;;13.86;64.67;100258.69;4976163;28;112602;-84
2024/02/07 00:03:51;;;;;;;7.50;3.72;;;;;;;13.87;64.69;100257.75;4947781;28;123275;-84
2024/02/07 00:06:19;;;;;;;7.72;3.83;;;;;;;13.86;64.69;100250.72;4984939;28;124793;-84
2024/02/07 00:08:46;;;;;;;10.25;3.78;;;;;;;13.86;64.96;100250.72;4966722;28;113551;-83
2024/02/07 00:11:13;;;;;;;6.70;3.70;;;;;;;13.87;64.89;100247.09;4983739;28;113096;-83
2024/02/07 00:13:41;;;;;;;6.65;3.50;;;;;;;13.87;65.01;100247.09;4976086;28;123915;-84
2024/02/07 00:16:10;;;;;;;6.95;3.50;;;;;;;13.87;64.87;100239.13;4976336;28;123776;-84
2024/02/07 00:18:37;;;;;;;7.40;3.58;;;;;;;13.87;64.92;100247.09;4990722;28;115602;-84
2024/02/07 00:21:05;;;;;;;12.70;3.72;;;;;;;13.88;65.03;100239.03;4973808;28;114471;-85
2024/02/07 00:23:32;;;;;;;7.85;3.70;;;;;;;13.89;65.06;100250.50;4955731;28;123505;-85
2024/02/07 00:25:59;;;;;;;10.52;4.13;;;;;;;13.88;65.21;100241.69;4972245;28;124171;-84
2024/02/07 00:28:26;;;;;;;9.65;3.78;;;;;;;13.91;65.11;100253.91;4990707;28;113781;-84
2024/02/07 00:30:53;;;;;;;9.23;3.70;;;;;;;13.91;65.23;100269.88;4989681;28;113721;-83
2024/02/07 00:33:20;;;;;;;7.68;3.42;;;;;;;13.91;65.26;100248.59;4970434;28;124000;-84
2024/02/07 00:35:48;;;;;;;6.75;3.30;;;;;;;13.91;65.32;100254.75;4965354;28;123828;-84
2024/02/07 00:38:15;;;;;;;7.22;3.40;;;;;;;13.92;65.42;100260.94;4952887;28;113256;-84
2024/02/07 00:40:42;;;;;;;7.28;3.50;;;;;;;13.94;65.54;100269.69;4971372;28;114046;-84
2024/02/07 00:43:14;;;;;;;7.95;3.40;;;;;;;13.94;65.32;100291.00;4971985;28;123190;-85
2024/02/07 00:45:42;;;;;;;4.20;0.88;;;;;;;13.88;64.34;100296.72;4966962;28;124970;-83
2024/02/07 00:48:09;;;;;;;0.82;0.55;;;;;;;13.62;63.10;100328.59;4973608;28;114863;-84
2024/02/07 00:50:36;;;;;;;3.38;0.88;;;;;;;13.31;62.45;100281.88;4973022;28;113069;-83
2024/02/07 00:53:04;;;;;;;2.97;1.00;;;;;;;12.97;62.15;100327.41;4970979;28;123097;-82
2024/02/07 00:55:31;;;;;;;2.55;0.90;;;;;;;12.62;62.01;100317.19;4961785;28;124407;-83
2024/02/07 00:57:58;;;;;;;2.45;0.85;;;;;;;12.34;62.27;100336.63;4960820;28;114923;-83
2024/02/07 01:00:25;;;;;;;3.42;1.00;;;;;;;12.15;62.19;100344.84;4970001;28;113937;-83
2024/02/07 01:02:52;;;;;;;2.83;0.90;;;;;;;11.95;62.35;100342.50;4971250;28;123404;-83
2024/02/07 01:05:21;;;;;;;2.13;0.70;;;;;;;11.77;62.42;100328.47;4965550;28;123411;-83
2024/02/07 01:07:48;;;;;;;2.60;0.88;;;;;;;11.60;62.53;100316.19;4954063;28;114044;-83
2024/02/07 01:10:16;;;;;;;2.85;0.95;;;;;;;11.46;62.71;100240.94;4964178;28;114542;-83
2024/02/07 01:12:43;;;;;;;3.83;0.93;;;;;;;11.29;62.50;100350.59;4966539;28;123399;-83
2024/02/07 01:15:10;;;;;;;4.05;1.10;;;;;;;11.14;62.72;100313.50;4975737;28;123617;-83
2024/02/07 01:17:38;;;;;;;3.63;1.17;;;;;;;11.02;62.82;100326.50;4964810;28;114370;-83
2024/02/07 01:20:09;;;;;;;4.35;0.90;;;;;;;10.89;62.74;100291.03;4974560;28;114309;-84
2024/02/07 01:22:37;;;;;;;4.15;1.00;;;;;;;10.78;63.07;100322.56;4962236;28;122921;-83
2024/02/07 01:25:06;;;;;;;4.55;1.13;;;;;;;10.68;63.01;100312.47;4974972;28;124639;-83
2024/02/07 01:27:33;;;;;;;3.30;1.15;;;;;;;10.56;62.92;100318.41;4972986;28;115054;-83
2024/02/07 01:30:01;;;;;;;5.78;1.10;;;;;;;10.45;63.21;100339.28;4972237;28;113840;-82
2024/02/07 01:32:28;;;;;;;2.17;1.00;;;;;;;10.34;63.35;100324.00;4968721;28;123251;-84
2024/02/07 01:34:56;;;;;;;4.22;1.20;;;;;;;10.26;63.28;100297.88;4944442;28;123302;-84
2024/02/07 01:37:23;;;;;;;3.95;1.00;;;;;;;10.19;63.35;100309.75;4953615;28;113154;-83
2024/02/07 01:39:50;;;;;;;4.57;1.23;;;;;;;10.14;63.62;100311.75;4961868;28;112155;-83
2024/02/07 01:42:18;;;;;;;3.63;1.20;;;;;;;10.07;63.42;100311.22;4972304;28;123489;-82
2024/02/07 01:44:45;;;;;;;5.75;1.30;;;;;;;10.02;63.48;100301.78;4968821;28;121768;-83
2024/02/07 01:47:13;;;;;;;4.90;1.20;;;;;;;9.94;63.54;100300.41;4969558;28;114433;-83
2024/02/07 01:49:50;;;;;;;4.63;1.20;;;;;;;9.89;63.90;100307.72;4960848;28;114167;-83
2024/02/07 01:52:21;;;;;;;4.20;1.15;;;;;;;9.84;63.80;100320.31;4964365;28;124956;-82
2024/02/07 01:54:50;;;;;;;3.53;0.90;;;;;;;9.80;63.70;100323.22;4965456;28;123246;-83
2024/02/07 01:57:17;;;;;;;4.97;0.98;;;;;;;9.75;63.65;100331.34;4967359;28;114987;-82
2024/02/07 01:59:45;;;;;;;3.50;0.93;;;;;;;9.67;63.52;100338.81;4964890;28;115205;-83
2024/02/07 02:02:13;;;;;;;4.80;0.90;;;;;;;9.61;63.72;100328.56;4961515;28;124386;-82
2024/02/07 02:04:42;;;;;;;5.40;1.17;;;;;;;9.53;63.59;100321.88;4977970;28;124638;-82
2024/02/07 02:07:09;;;;;;;4.38;0.93;;;;;;;9.48;63.53;100334.44;4963352;28;115129;-82
2024/02/07 02:09:36;;;;;;;6.22;1.02;;;;;;;9.42;63.68;100324.16;4980443;28;113561;-83
2024/02/07 02:12:06;;;;;;;4.25;1.00;;;;;;;9.36;63.76;100329.72;4960889;28;123700;-82
2024/02/07 02:14:33;;;;;;;6.32;1.13;;;;;;;9.32;63.70;100322.88;4959262;28;125030;-83
2024/02/07 02:17:00;;;;;;;3.50;1.00;;;;;;;9.27;63.46;100319.63;4965309;28;113939;-82
2024/02/07 02:19:27;;;;;;;3.78;0.82;;;;;;;9.24;63.74;100325.06;4968190;28;112154;-82
2024/02/07 02:22:24;;;;;;;1.80;0.82;;;;;;;9.21;63.59;100335.75;4965838;28;127029;-83
2024/02/07 02:25:00;;;;;;;6.07;1.38;;;;;;;9.15;63.71;100321.94;4947727;28;123596;-82
2024/02/07 02:27:37;;;;;;;5.43;1.13;;;;;;;9.14;63.67;100330.78;4950766;28;113730;-83
2024/02/07 02:30:11;;;;;;;7.22;1.02;;;;;;;9.10;64.01;100329.22;4957808;28;113118;-82
2024/02/07 02:32:42;;;;;;;6.90;1.10;;;;;;;9.08;63.75;100325.78;4974212;28;123699;-82
2024/02/07 02:35:12;;;;;;;5.15;1.20;;;;;;;9.06;64.00;100330.28;4981165;28;125038;-82
2024/02/07 02:37:39;;;;;;;6.05;1.40;;;;;;;9.04;63.97;100326.88;4996626;28;114578;-82
2024/02/07 02:40:07;;;;;;;5.50;1.30;;;;;;;9.04;63.81;100334.78;4991970;28;115295;-82
2024/02/07 02:42:35;;;;;;;5.50;1.10;;;;;;;9.04;64.32;100329.50;4980845;28;125018;-81
2024/02/07 02:45:02;;;;;;;10.52;1.30;;;;;;;9.05;64.01;100330.34;5006780;28;123321;-83
2024/02/07 02:47:29;;;;;;;3.85;1.02;;;;;;;9.03;64.01;100333.06;4983877;28;115592;-82
2024/02/07 02:49:57;;;;;;;6.50;1.10;;;;;;;9.06;64.28;100338.22;4991057;28;114392;-82
2024/02/07 02:52:24;;;;;;;2.47;1.08;;;;;;;9.09;64.08;100345.13;5007022;28;126380;-83
2024/02/07 02:54:51;;;;;;;5.63;1.33;;;;;;;9.09;64.27;100359.19;4992541;28;124233;-83
2024/02/07 02:57:19;;;;;;;3.78;1.20;;;;;;;9.09;64.09;100364.47;4992778;28;113807;-82
2024/02/07 02:59:48;;;;;;;7.80;1.48;;;;;;;9.09;64.02;100375.03;4964617;28;114666;-82
2024/02/07 03:02:19;;;;;;;5.32;1.42;;;;;;;9.09;64.20;100356.53;4991608;28;124458;-83
2024/02/07 03:04:49;;;;;;;4.50;1.10;;;;;;;9.09;64.57;100351.25;4980314;28;123807;-84
2024/02/07 03:10:04;;;;;;;6.65;1.30;;;;;;;9.09;64.15;100375.03;4977765;28;114115;-82
2024/02/07 03:12:32;;;;;;;4.15;1.48;;;;;;;9.06;64.18;100380.47;4959594;28;125008;-82
2024/02/07 03:14:59;;;;;;;4.35;1.17;;;;;;;9.04;64.20;100371.78;4972730;28;122052;-83
2024/02/07 03:17:26;;;;;;;7.90;1.40;;;;;;;9.01;64.05;100371.91;4971558;28;113705;-82
2024/02/07 03:19:54;;;;;;;5.72;1.00;;;;;;;8.98;64.13;100377.31;4944653;28;112917;-82
2024/02/07 03:22:21;;;;;;;4.93;0.73;;;;;;;8.93;64.20;100364.34;4957075;28;124364;-83
2024/02/07 03:24:55;;;;;;;3.40;0.88;;;;;;;8.89;63.85;100378.63;4965654;28;122493;-83
2024/02/07 03:27:23;;;;;;;5.68;0.95;;;;;;;8.87;63.94;100379.59;4971145;28;113821;-83
2024/02/07 03:29:51;;;;;;;2.47;0.93;;;;;;;8.86;63.92;100377.88;4972897;28;114693;-83
2024/02/07 03:32:19;;;;;;;5.68;1.00;;;;;;;8.81;63.95;100385.16;4972091;28;124902;-83
2024/02/07 03:34:47;;;;;;;3.83;1.00;;;;;;;8.76;63.97;100373.03;4939766;28;121782;-82
2024/02/07 03:37:15;;;;;;;2.92;1.30;;;;;;;8.71;63.86;100390.84;4974543;28;115202;-82
2024/02/07 03:39:43;;;;;;;5.60;1.13;;;;;;;8.69;64.02;100376.84;4952790;28;114116;-82
2024/02/07 03:42:10;;;;;;;5.07;0.98;;;;;;;8.66;64.08;100387.53;4959151;28;124200;-82
2024/02/07 03:44:37;;;;;;;5.60;1.30;;;;;;;8.63;63.81;100387.69;4968475;28;123575;-81
2024/02/07 03:47:04;;;;;;;3.28;1.10;;;;;;;8.58;63.86;100379.13;4961134;28;113950;-82
2024/02/07 03:49:32;;;;;;;5.88;1.10;;;;;;;8.56;63.99;100380.97;4967645;28;113427;-81
2024/02/07 03:51:59;;;;;;;6.70;1.30;;;;;;;8.52;64.04;100389.94;4976344;28;123582;-81
2024/02/07 03:54:26;;;;;;;4.57;1.00;;;;;;;8.48;64.01;100404.22;4960502;28;124030;-82
2024/02/07 03:56:53;;;;;;;3.28;0.90;;;;;;;8.44;64.12;100407.88;4955110;28;113887;-82
2024/02/07 03:59:20;;;;;;;4.82;1.00;;;;;;;8.40;63.88;100404.50;4973793;28;113206;-82
2024/02/07 04:01:48;;;;;;;2.42;0.90;;;;;;;8.37;63.71;100387.00;4959401;28;124774;-82
2024/02/07 04:04:17;;;;;;;2.78;0.70;;;;;;;8.32;63.83;100399.53;4962386;28;122284;-82
2024/02/07 04:06:47;;;;;;;2.13;0.82;;;;;;;8.28;63.65;100408.50;4952994;28;113619;-82
2024/02/07 04:09:18;;;;;;;1.50;0.75;;;;;;;8.24;63.85;100404.31;4968129;28;113614;-81
2024/02/07 05:17:20;;;;;;;3.80;0.80;;;;;;;7.55;63.42;100450.16;4959558;28;122639;-82
2024/02/07 05:19:48;;;;;;;6.25;1.10;;;;;;;7.54;63.87;100453.69;4972916;28;123792;-82
2024/02/07 05:22:17;;;;;;;5.18;0.85;;;;;;;7.54;63.76;100443.16;4960829;28;113664;-82
2024/02/07 05:24:46;;;;;;;4.30;0.90;;;;;;;7.55;63.43;100444.91;4976686;28;114529;-83
2024/02/07 05:27:14;;;;;;;5.95;1.00;;;;;;;7.57;63.53;100443.06;4971380;28;123493;-82
2024/02/07 05:29:41;;;;;;;4.32;0.80;;;;;;;7.60;63.84;100439.44;4970648;28;123064;-83
2024/02/07 05:32:09;;;;;;;4.90;0.93;;;;;;;7.64;63.66;100438.38;4959412;28;115418;-82
2024/02/07 05:34:37;;;;;;;2.85;0.70;;;;;;;7.68;63.78;100439.13;4956593;28;113181;-82
2024/02/07 05:37:04;;;;;;;6.22;0.90;;;;;;;7.73;63.62;100437.16;4951770;28;123392;-83
2024/02/07 05:39:33;;;;;;;4.57;0.88;;;;;;;7.78;63.62;100441.34;4976964;28;122939;-83
2024/02/07 05:42:01;;;;;;;4.30;1.20;;;;;;;7.83;63.64;100443.78;4968566;28;113736;-82
2024/02/07 05:44:29;;;;;;;5.63;0.82;;;;;;;7.88;63.68;100452.38;4976297;28;112630;-82
2024/02/07 05:46:56;;;;;;;7.75;1.23;;;;;;;7.91;63.70;100457.53;4972540;28;123627;-82
2024/02/07 05:49:23;;;;;;;5.70;1.30;;;;;;;7.93;63.67;100455.69;4985571;28;123306;-82
2024/02/07 05:52:00;;;;;;;6.60;1.38;;;;;;;7.95;63.78;100448.56;4945477;28;113737;-82
2024/02/07 05:54:29;;;;;;;3.67;1.00;;;;;;;7.98;63.46;100452.84;4971591;28;112538;-82
2024/02/07 05:56:57;;;;;;;4.72;1.10;;;;;;;8.01;63.37;100457.16;4968316;28;123207;-83
2024/02/07 05:59:24;;;;;;;6.93;1.05;;;;;;;8.02;63.45;100453.59;4957361;28;122878;-83
2024/02/07 06:01:51;;;;;;;4.90;1.15;;;;;;;8.04;63.00;100463.16;4968803;28;114344;-83
2024/02/07 06:04:19;;;;;;;7.05;1.20;;;;;;;8.06;63.66;100450.78;4970303;28;114432;-83
2024/02/07 06:06:49;;;;;;;4.93;0.93;;;;;;;8.09;63.48;100449.78;4968895;28;123571;-82
2024/02/07 06:09:17;;;;;;;2.58;1.00;;;;;;;8.12;63.09;100454.94;4962300;28;123153;-83
2024/02/07 06:11:44;;;;;;;6.35;1.17;;;;;;;8.13;63.55;100459.28;4974267;28;115409;-83
2024/02/07 06:14:14;;;;;;;5.78;1.02;;;;;;;8.15;63.72;100465.34;4969219;28;114546;-83
2024/02/07 06:16:41;;;;;;;5.55;1.45;;;;;;;8.15;63.75;100470.63;4956718;28;123425;-83
2024/02/07 06:19:11;;;;;;;5.05;0.93;;;;;;;8.18;63.64;100486.34;4975984;28;121976;-83
2024/02/07 06:21:39;;;;;;;9.20;1.20;;;;;;;8.19;63.65;100482.75;4959805;28;113752;-83
2024/02/07 06:24:06;;;;;;;4.65;1.10;;;;;;;8.19;63.29;100493.31;4975290;28;113527;-83
2024/02/07 06:26:34;;;;;;;7.72;1.25;;;;;;;8.20;63.52;100500.31;4977349;28;122153;-83
2024/02/07 06:29:01;;;;;;;5.50;1.05;;;;;;;8.21;63.73;100501.16;4975831;28;124011;-83
2024/02/07 06:31:28;;;;;;;6.55;1.02;;;;;;;8.20;63.59;100502.97;4977600;28;113336;-83
2024/02/07 06:33:55;;;;;;;6.85;1.30;;;;;;;8.21;63.38;100504.66;5003601;28;111409;-83
2024/02/07 06:36:22;;;;;;;4.82;1.40;;;;;;;8.21;63.43;100496.75;4961745;28;123508;-83
2024/02/07 06:38:50;;;;;;;4.28;0.82;;;;;;;8.23;63.51;100500.22;4958491;28;122092;-83
2024/02/07 06:41:17;;;;;;;4.07;1.15;;;;;;;8.24;63.57;100491.34;4974526;28;115337;-83
2024/02/07 06:43:44;;;;;;;2.08;0.80;;;;;;;8.23;63.16;100500.22;4963977;28;113615;-83
2024/02/07 06:46:11;;;;;;;6.82;1.00;;;;;;;8.23;63.34;100510.75;4947597;28;121974;-83
2024/02/07 06:48:38;;;;;;;5.05;1.00;;;;;;;8.23;63.48;100516.03;4964547;28;123382;-83
2024/02/07 06:51:06;;;;;;;2.67;0.80;;;;;;;8.24;63.64;100507.19;4975501;28;113027;-83
2024/02/07 06:53:33;;;;;;;3.83;0.90;;;;;;;8.25;63.68;100508.91;4969105;28;113562;-82
2024/02/07 06:56:00;;;;;;;4.15;0.82;;;;;;;8.24;63.30;100501.91;4968094;28;123392;-83
2024/02/07 06:58:30;;;;;;;5.05;0.90;;;;;;;8.24;63.53;100501.91;4967165;28;123891;-83
2024/02/07 07:00:58;;;;;;;2.75;0.60;;;;;;;8.24;63.77;100507.19;4956265;28;114744;-82
2024/02/07 07:03:26;;;;;;;2.65;0.70;;;;;;;8.25;63.46;100514.19;4971951;28;115014;-83
2024/02/07 07:05:53;;;;;;;5.30;0.90;;;;;;;8.25;63.16;100503.63;4978007;28;122604;-83
2024/02/07 07:08:21;;;;;;;5.60;0.90;;;;;;;8.26;63.46;100507.13;4967307;28;124480;-83
2024/02/07 07:10:48;;;;;;;1.67;0.70;;;;;;;8.26;63.35;100510.63;4984687;28;114389;-83
2024/02/07 07:13:15;;;;;;;7.53;1.15;;;;;;;8.27;63.45;100512.34;4976204;28;112581;-83
2024/02/07 07:15:42;;;;;;;3.35;0.82;;;;;;;8.27;63.40;100517.63;4964979;28;121967;-83
2024/02/07 07:18:09;;;;;;;3.03;0.80;;;;;;;8.28;63.37;100514.06;4986629;28;123631;-83
2024/02/07 07:20:37;;;;;;;4.63;0.82;;;;;;;8.30;63.26;100517.47;4995131;28;114309;-83
2024/02/07 07:23:04;;;;;;;2.63;0.93;;;;;;;8.31;63.32;100519.22;4953407;28;113096;-83
2024/02/07 07:25:43;;;;;;;2.33;0.73;;;;;;;8.32;63.45;100526.19;4967568;28;125091;-82
2024/02/07 07:28:10;;;;;;;4.97;0.88;;;;;;;8.31;63.31;100519.22;4969403;28;124072;-82
2024/02/07 07:30:38;;;;;;;1.98;1.00;;;;;;;8.32;63.14;100526.19;4976295;28;113234;-83
2024/02/07 07:33:06;;;;;;;4.70;1.00;;;;;;;8.31;63.48;100524.50;4976339;28;111752;-83
2024/02/07 07:35:33;;;;;;;5.78;0.85;;;;;;;8.31;63.19;100524.50;4952625;28;123056;-83
2024/02/07 07:38:03;;;;;;;5.70;1.38;;;;;;;8.32;62.97;100525.34;4959798;28;123759;-82
2024/02/07 07:40:38;;;;;;;;;;;;;;;8.32;63.21;100526.19;4967830;28;113705;-82
2024/02/07 07:43:05;;;;;;;2.53;1.30;;;;;;;8.34;63.31;100528.78;4939896;28;113019;-83
2024/02/07 07:45:32;;;;;;;4.68;1.20;;;;;;;8.31;63.37;100540.31;5001497;28;123073;-83
2024/02/07 07:47:59;;;;;;;4.20;0.98;;;;;;;8.32;63.00;100546.44;4989439;28;124068;-82
2024/02/07 07:50:27;;;;;;;3.35;1.10;;;;;;;8.31;63.16;100556.16;4987379;28;114419;-83
2024/02/07 07:52:54;;;;;;;7.28;1.27;;;;;;;8.32;63.18;100543.81;4993680;28;114729;-82
2024/02/07 07:55:21;;;;;;;2.85;1.38;;;;;;;8.33;63.39;100549.03;4988701;28;123974;-83
2024/02/07 07:57:48;;;;;;;5.47;1.20;;;;;;;8.34;63.28;100553.41;4993603;28;124275;-83
2024/02/07 08:00:16;;;;;;;5.13;1.40;;;;;;;8.35;63.60;100547.19;4984298;28;114856;-82
2024/02/07 08:02:43;;;;;;;3.90;1.20;;;;;;;8.37;63.51;100547.97;4977615;28;114830;-83
2024/02/07 08:05:10;;;;;;;5.50;1.27;;;;;;;8.39;63.49;100567.25;4991931;28;125184;-82
2024/02/07 08:07:37;;;;;;;5.57;1.40;;;;;;;8.42;63.48;100565.44;4994193;28;124616;-82
2024/02/07 08:10:05;;;;;;;1.58;0.95;;;;;;;8.45;63.17;100583.78;4973777;28;116062;-82
2024/02/07 08:12:32;;;;;;;4.85;1.35;;;;;;;8.47;62.98;100568.75;4975520;28;114361;-82
2024/02/07 08:14:59;;;;;;;5.43;1.35;;;;;;;8.47;63.03;100560.84;4971606;28;126068;-82
2024/02/07 08:17:26;;;;;;;3.78;1.10;;;;;;;8.47;63.16;100574.03;4971678;28;125178;-82
2024/02/07 08:19:53;;;;;;;7.07;1.20;;;;;;;8.48;63.21;100570.47;4960483;28;113902;-82
2024/02/07 08:22:21;;;;;;;1.83;1.17;;;;;;;8.50;63.25;100585.31;4962491;28;114972;-82
2024/02/07 08:24:48;;;;;;;4.90;1.40;;;;;;;8.53;63.36;100581.69;4966166;28;124401;-81
2024/02/07 08:27:15;;;;;;;4.50;1.45;;;;;;;8.53;63.24;100597.53;4958576;28;124308;-82
2024/02/07 08:29:42;;;;;;;4.10;1.25;;;;;;;8.52;63.23;100585.28;4963155;28;114717;-82
2024/02/07 08:32:09;;;;;;;6.05;1.42;;;;;;;8.53;63.18;100586.97;4970265;28;114321;-82
2024/02/07 08:34:36;;;;;;;3.85;1.20;;;;;;;8.55;63.53;100595.69;4966674;28;123818;-82
2024/02/07 08:37:06;;;;;;;4.28;1.40;;;;;;;8.58;63.17;100601.69;4967098;28;123400;-82
2024/02/07 08:39:33;;;;;;;6.97;1.55;;;;;;;8.61;62.92;100587.53;4970256;28;115689;-82
2024/02/07 08:42:00;;;;;;;3.40;1.20;;;;;;;8.62;63.06;100591.88;4968311;28;115912;-82
2024/02/07 08:44:27;;;;;;;4.13;1.17;;;;;;;8.63;62.97;100593.59;4970273;28;124090;-82
2024/02/07 08:46:55;;;;;;;2.40;0.98;;;;;;;8.63;63.49;100592.75;4968766;28;123896;-82
2024/02/07 08:49:22;;;;;;;3.45;1.20;;;;;;;8.64;63.08;100595.31;4966639;28;114249;-82
2024/02/07 08:51:50;;;;;;;3.53;1.13;;;;;;;8.64;63.07;100600.59;4976558;28;113913;-82
2024/02/07 08:54:17;;;;;;;2.70;1.10;;;;;;;8.66;63.61;100604.03;4964269;28;125379;-82
2024/02/07 08:56:44;;;;;;;2.67;1.10;;;;;;;8.68;63.26;100596.94;4963687;28;124031;-82
2024/02/07 08:59:11;;;;;;;6.60;1.30;;;;;;;8.72;63.44;100592.34;4968126;28;114608;-83
2024/02/07 09:01:38;;;;;;;2.80;1.27;;;;;;;8.74;63.38;100591.38;4969072;28;113688;-82
2024/02/07 09:04:05;;;;;;;2.97;1.20;;;;;;;8.76;63.19;100599.25;4962429;28;123657;-83
2024/02/07 09:06:35;;;;;;;4.07;1.17;;;;;;;8.78;63.48;100607.97;4963840;28;124899;-82
2024/02/07 09:09:17;;;;;;;5.85;1.08;;;;;;;8.81;63.36;100607.81;4993369;28;114828;-83
2024/02/07 09:12:03;;;;;;;3.55;1.25;;;;;;;8.83;63.32;100613.03;4968836;28;113797;-82
2024/02/07 09:14:30;;;;;;;2.75;1.10;;;;;;;8.84;63.24;100618.25;4983548;28;124144;-82
2024/02/07 09:16:57;;;;;;;2.83;1.15;;;;;;;8.85;63.21;100613.84;4960729;28;124437;-82
2024/02/07 09:19:25;;;;;;;4.05;1.30;;;;;;;8.88;63.44;100619.00;4964510;28;114068;-82
2024/02/07 09:21:52;;;;;;;4.72;1.42;;;;;;;8.89;63.20;100620.69;4957087;28;114080;-83
2024/02/07 09:24:19;;;;;;;3.42;0.90;;;;;;;8.90;63.37;100618.00;4967258;28;124552;-82
2024/02/07 09:26:46;;;;;;;2.63;1.15;;;;;;;8.93;63.48;100614.38;4967814;28;123013;-82
2024/02/07 09:29:13;;;;;;;2.92;1.27;;;;;;;8.95;63.08;100604.63;4926860;28;1171409;-83
2024/02/07 09:31:40;;;;;;;3.75;1.27;;;;;;;8.98;63.65;100593.06;4961694;28;113919;-82
2024/02/07 09:34:08;;;;;;;4.78;1.05;;;;;;;8.99;63.51;100594.78;4965737;28;124259;-82
2024/02/07 09:36:38;;;;;;;2.78;1.20;;;;;;;9.02;63.04;100610.47;4969666;28;124803;-82
2024/02/07 09:39:05;;;;;;;2.67;1.27;;;;;;;9.01;63.30;100604.34;4978518;28;113884;-82
2024/02/07 09:41:33;;;;;;;6.32;1.20;;;;;;;9.03;63.07;100623.63;4968045;28;113821;-81
2024/02/07 09:44:04;;;;;;;2.58;1.33;;;;;;;9.04;63.15;100625.38;4967864;28;123723;-82
2024/02/07 09:46:37;;;;;;;7.45;1.40;;;;;;;9.06;63.08;100639.38;4983137;28;123428;-82
2024/02/07 09:49:05;;;;;;;2.70;1.17;;;;;;;9.08;63.10;100648.09;4970431;28;114435;-81
2024/02/07 09:51:33;;;;;;;3.30;1.17;;;;;;;9.09;63.14;100655.06;4968288;28;114481;-82
2024/02/07 09:54:01;;;;;;;4.85;1.30;;;;;;;9.10;63.29;100651.50;4968325;28;123743;-80
2024/02/07 09:56:29;;;;;;;2.85;1.50;;;;;;;9.13;63.25;100643.44;4969189;28;123434;-82
2024/02/07 09:58:57;;;;;;;5.68;1.35;;;;;;;9.15;63.40;100653.94;4960961;28;114171;-83
2024/02/07 10:01:28;;;;;;;9.52;1.38;;;;;;;9.20;63.39;100651.13;4956880;28;114441;-83
2024/02/07 10:03:57;;;;;;;3.08;1.20;;;;;;;9.21;63.43;100643.16;4941167;28;123035;-83
2024/02/07 10:06:25;;;;;;;4.72;1.20;;;;;;;9.24;63.27;100647.44;4967082;28;124334;-83
2024/02/07 10:08:54;;;;;;;3.97;1.30;;;;;;;9.28;63.06;100638.44;4958387;28;114583;-83
2024/02/07 10:11:22;;;;;;;3.53;1.42;;;;;;;9.30;63.25;100626.00;4953594;28;114230;-82
2024/02/07 10:13:49;;;;;;;4.25;1.33;;;;;;;9.32;63.16;100618.88;4966088;28;123230;-82
2024/02/07 10:16:17;;;;;;;4.70;1.15;;;;;;;9.35;63.28;100616.13;4959011;28;123913;-82
2024/02/07 10:18:44;;;;;;;7.90;1.67;;;;;;;9.40;63.32;100631.75;4949557;28;114940;-82
2024/02/07 10:21:12;;;;;;;4.15;1.40;;;;;;;9.44;63.52;100634.22;4964784;28;113846;-82
2024/02/07 10:23:39;;;;;;;4.70;1.38;;;;;;;9.49;63.26;100632.25;4957346;28;124141;-83
2024/02/07 10:26:06;;;;;;;5.40;1.48;;;;;;;9.54;63.47;100624.94;4967159;28;124349;-83
2024/02/07 10:28:33;;;;;;;3.97;1.45;;;;;;;9.61;63.25;100635.25;4948141;28;112967;-83
2024/02/07 10:31:03;;;;;;;4.30;1.30;;;;;;;9.67;63.47;100619.13;4957749;28;114114;-83
2024/02/07 10:33:34;;;;;;;3.85;1.40;;;;;;;9.71;63.39;100604.81;4968090;28;125338;-83
2024/02/07 10:36:10;;;;;;;5.00;1.90;;;;;;;9.76;63.47;100597.53;4965316;28;123668;-83
2024/02/07 10:38:39;;;;;;;6.72;1.67;;;;;;;9.79;62.98;100612.41;4980859;28;112870;-83
2024/02/07 10:41:07;;;;;;;5.32;1.80;;;;;;;9.82;63.35;100618.41;4967917;28;113624;-83
2024/02/07 10:43:36;;;;;;;5.82;1.73;;;;;;;9.85;63.17;100634.16;4956218;28;122164;-83
2024/02/07 10:46:13;;;;;;;2.80;1.50;;;;;;;9.90;63.27;100636.59;4946664;28;123716;-83
2024/02/07 10:48:41;;;;;;;7.00;1.50;;;;;;;9.96;63.45;100630.16;4956111;28;114581;-82
2024/02/07 10:51:10;;;;;;;3.22;1.30;;;;;;;10.00;63.37;100615.84;4952322;28;114159;-83
2024/02/07 10:53:37;;;;;;;6.68;1.65;;;;;;;10.03;63.24;100621.00;4952065;28;125716;-83
2024/02/07 10:56:11;;;;;;;5.50;2.05;;;;;;;10.07;63.05;100607.56;4963866;28;124133;-83
2024/02/07 10:58:39;;;;;;;4.13;1.50;;;;;;;10.12;63.27;100621.44;4961159;28;114700;-84
2024/02/07 11:01:07;;;;;;;5.68;1.90;;;;;;;10.16;63.16;100610.72;4953451;28;113053;-83
2024/02/07 11:03:35;;;;;;;4.05;1.35;;;;;;;10.16;63.19;100606.28;4967445;28;123929;-83
2024/02/07 11:06:03;;;;;;;6.50;1.63;;;;;;;10.16;63.08;100611.56;4968832;28;123042;-84
2024/02/07 11:08:31;;;;;;;7.97;2.63;;;;;;;10.16;62.80;100595.69;4949882;28;115640;-83
2024/02/07 11:11:00;;;;;;;5.68;1.65;;;;;;;10.17;62.98;100592.13;4965863;28;113948;-82
2024/02/07 11:13:28;;;;;;;4.95;1.55;;;;;;;10.18;62.97;100587.69;4959136;28;123382;-84
2024/02/07 11:15:55;;;;;;;6.35;2.00;;;;;;;10.18;62.83;100582.38;4966248;28;123505;-83
2024/02/07 11:18:23;;;;;;;4.40;1.55;;;;;;;10.18;62.75;100604.41;4953289;28;114113;-83
2024/02/07 11:20:53;;;;;;;6.22;1.67;;;;;;;10.18;62.71;100604.41;4943993;28;114510;-83
2024/02/07 11:23:30;;;;;;;5.25;1.45;;;;;;;10.17;62.60;100608.00;4950510;28;123318;-83
2024/02/07 11:26:00;;;;;;;9.10;1.65;;;;;;;10.18;62.44;100609.69;4965674;28;123382;-82
2024/02/07 11:28:28;;;;;;;2.97;1.25;;;;;;;10.20;62.69;100612.28;4962464;28;113975;-83
2024/02/07 11:30:58;;;;;;;6.47;1.77;;;;;;;10.20;62.50;100613.13;4971083;28;112651;-82
2024/02/07 11:33:26;;;;;;;5.28;1.25;;;;;;;10.21;62.86;100604.28;4967630;28;123537;-83
2024/02/07 11:36:03;;;;;;;6.30;1.30;;;;;;;10.25;62.78;100610.28;4965639;28;123930;-83
2024/02/07 11:38:35;;;;;;;3.92;1.10;;;;;;;10.28;62.65;100595.13;4954499;28;113286;-82
2024/02/07 11:41:06;;;;;;;3.65;1.35;;;;;;;10.31;62.68;100592.34;4967758;28;113562;-83
2024/02/07 11:43:37;;;;;;;6.28;1.40;;;;;;;10.33;62.72;100587.81;4974791;28;123993;-83
2024/02/07 11:46:05;;;;;;;5.32;1.70;;;;;;;10.36;62.62;100586.84;4958056;28;123692;-84
2024/02/07 11:48:41;;;;;;;10.38;1.90;;;;;;;10.42;62.89;100585.69;4969238;28;113574;-83
2024/02/07 11:51:09;;;;;;;5.32;1.55;;;;;;;10.45;62.67;100593.47;4968780;28;113445;-82
2024/02/07 11:53:41;;;;;;;5.38;1.40;;;;;;;10.47;62.70;100594.25;4968546;28;123043;-83
2024/02/07 11:56:12;;;;;;;4.88;1.60;;;;;;;10.51;62.58;100579.94;4963588;28;123160;-82
2024/02/07 11:58:40;;;;;;;8.73;1.80;;;;;;;10.54;62.68;100587.72;4967179;28;115088;-82
2024/02/07 12:01:09;;;;;;;4.72;1.30;;;;;;;10.54;62.33;100595.66;4970757;28;115148;-83
2024/02/07 12:03:39;;;;;;;4.47;1.30;;;;;;;10.53;62.29;100593.97;4968398;28;123991;-82
2024/02/07 12:06:08;;;;;;;5.53;1.40;;;;;;;10.53;62.26;100588.66;4985643;28;124167;-83
2024/02/07 12:08:36;;;;;;;9.25;1.90;;;;;;;10.52;62.07;100586.94;4969058;28;114202;-83
2024/02/07 12:11:08;;;;;;;3.10;1.23;;;;;;;10.52;62.54;100586.94;4964683;28;113068;-82
2024/02/07 12:13:37;;;;;;;9.48;1.30;;;;;;;10.53;62.33;100583.38;4970561;28;121927;-82
2024/02/07 12:16:08;;;;;;;8.27;1.67;;;;;;;10.56;62.29;100577.06;4971065;28;123872;-82
2024/02/07 12:18:35;;;;;;;8.73;1.52;;;;;;;10.58;62.18;100591.91;4969938;28;114088;-82
2024/02/07 12:21:04;;;;;;;8.60;1.45;;;;;;;10.62;62.24;100587.34;4955366;28;113336;-83
2024/02/07 12:23:33;;;;;;;7.93;1.63;;;;;;;10.63;61.68;100597.00;4966913;28;123469;-81
2024/02/07 12:26:02;;;;;;;8.32;1.50;;;;;;;10.60;61.86;100579.47;4963917;28;123987;-81
2024/02/07 12:28:30;;;;;;;9.20;1.85;;;;;;;10.62;62.01;100593.47;4969275;28;113916;-83
2024/02/07 12:31:00;;;;;;;12.15;1.92;;;;;;;10.63;61.63;100589.91;4979433;28;114326;-83
2024/02/07 12:33:29;;;;;;;9.80;2.03;;;;;;;10.63;61.63;100595.22;4976920;28;123340;-83
2024/02/07 12:35:58;;;;;;;8.65;2.00;;;;;;;10.65;61.61;100593.34;4976709;28;123710;-83